sensor_id;sensor_type;location;lat;lon;timestamp;P1;durP1;ratioP1;P2;durP2;ratioP2
46505;SDS011;32220;49.808;9.968;2023-03-23T00:01:15;1.80;;;1.30;;
46505;SDS011;32220;49.808;9.968;2023-03-23T00:03:45;2.10;;;1.30;;
46505;SDS011;32220;49.808;9.968;2023-03-23T00:06:14;1.90;;;1.30;;
46505;SDS011;32220;49.808;9.968;2023-03-23T00:08:44;2.77;;;1.47;;
46505;SDS011;32220;49.808;9.968;2023-03-23T00:11:15;1.40;;;1.23;;
46505;SDS011;32220;49.808;9.968;2023-03-23T00:13:48;2.13;;;1.20;;
46505;SDS011;32220;49.808;9.968;2023-03-23T00:16:18;2.03;;;1.33;;
46505;SDS011;32220;49.808;9.968;2023-03-23T00:18:56;2.03;;;1.33;;
46505;SDS011;32220;49.808;9.968;2023-03-23T00:21:26;1.77;;;1.50;;
46505;SDS011;32220;49.808;9.968;2023-03-23T00:24:01;1.90;;;1.40;;
46505;SDS011;32220;49.808;9.968;2023-03-23T00:26:30;2.10;;;1.30;;
46505;SDS011;32220;49.808;9.968;2023-03-23T00:29:02;2.43;;;1.50;;
46505;SDS011;32220;49.808;9.968;2023-03-23T00:31:31;1.50;;;1.20;;
46505;SDS011;32220;49.808;9.968;2023-03-23T00:34:03;3.53;;;1.40;;
46505;SDS011;32220;49.808;9.968;2023-03-23T00:36:32;2.10;;;1.50;;
46505;SDS011;32220;49.808;9.968;2023-03-23T00:39:02;1.77;;;1.40;;
46505;SDS011;32220;49.808;9.968;2023-03-23T00:41:31;1.53;;;1.43;;
46505;SDS011;32220;49.808;9.968;2023-03-23T00:44:03;1.50;;;1.40;;
46505;SDS011;32220;49.808;9.968;2023-03-23T00:46:34;1.93;;;1.40;;
46505;SDS011;32220;49.808;9.968;2023-03-23T00:49:11;3.50;;;1.37;;
46505;SDS011;32220;49.808;9.968;2023-03-23T00:51:40;4.07;;;1.30;;
46505;SDS011;32220;49.808;9.968;2023-03-23T00:54:08;1.53;;;1.40;;
46505;SDS011;32220;49.808;9.968;2023-03-23T00:56:36;2.40;;;1.50;;
46505;SDS011;32220;49.808;9.968;2023-03-23T00:59:06;2.60;;;1.40;;
46505;SDS011;32220;49.808;9.968;2023-03-23T01:01:34;3.07;;;1.70;;
46505;SDS011;32220;49.808;9.968;2023-03-23T01:04:03;3.17;;;1.83;;
46505;SDS011;32220;49.808;9.968;2023-03-23T01:06:32;1.87;;;1.40;;
46505;SDS011;32220;49.808;9.968;2023-03-23T01:09:02;1.60;;;1.50;;
46505;SDS011;32220;49.808;9.968;2023-03-23T01:11:30;1.93;;;1.60;;
46505;SDS011;32220;49.808;9.968;2023-03-23T01:13:58;1.33;;;1.17;;
46505;SDS011;32220;49.808;9.968;2023-03-23T01:16:27;1.70;;;1.33;;
46505;SDS011;32220;49.808;9.968;2023-03-23T01:18:55;1.87;;;1.30;;
46505;SDS011;32220;49.808;9.968;2023-03-23T01:21:23;1.20;;;1.10;;
46505;SDS011;32220;49.808;9.968;2023-03-23T01:23:52;1.87;;;1.60;;
46505;SDS011;32220;49.808;9.968;2023-03-23T01:26:20;1.97;;;1.33;;
46505;SDS011;32220;49.808;9.968;2023-03-23T01:28:51;3.10;;;1.43;;
46505;SDS011;32220;49.808;9.968;2023-03-23T01:31:19;1.40;;;1.30;;
46505;SDS011;32220;49.808;9.968;2023-03-23T01:33:50;2.20;;;1.30;;
46505;SDS011;32220;49.808;9.968;2023-03-23T01:36:21;1.43;;;1.33;;
46505;SDS011;32220;49.808;9.968;2023-03-23T01:38:50;1.40;;;1.13;;
46505;SDS011;32220;49.808;9.968;2023-03-23T01:41:18;1.73;;;1.30;;
46505;SDS011;32220;49.808;9.968;2023-03-23T01:44:00;1.30;;;1.20;;
46505;SDS011;32220;49.808;9.968;2023-03-23T01:46:39;2.10;;;1.30;;
46505;SDS011;32220;49.808;9.968;2023-03-23T01:49:09;1.77;;;1.50;;
46505;SDS011;32220;49.808;9.968;2023-03-23T01:51:44;2.10;;;1.40;;
46505;SDS011;32220;49.808;9.968;2023-03-23T01:54:16;1.63;;;1.40;;
46505;SDS011;32220;49.808;9.968;2023-03-23T01:56:48;1.70;;;1.30;;
46505;SDS011;32220;49.808;9.968;2023-03-23T01:59:21;1.80;;;1.30;;
46505;SDS011;32220;49.808;9.968;2023-03-23T02:02:06;2.07;;;1.73;;
46505;SDS011;32220;49.808;9.968;2023-03-23T02:04:38;1.20;;;1.10;;
46505;SDS011;32220;49.808;9.968;2023-03-23T02:07:08;3.20;;;1.70;;
46505;SDS011;32220;49.808;9.968;2023-03-23T02:09:36;1.10;;;1.00;;
46505;SDS011;32220;49.808;9.968;2023-03-23T02:12:04;2.17;;;1.37;;
46505;SDS011;32220;49.808;9.968;2023-03-23T02:14:33;2.63;;;1.40;;
46505;SDS011;32220;49.808;9.968;2023-03-23T02:17:02;2.07;;;1.03;;
46505;SDS011;32220;49.808;9.968;2023-03-23T02:19:41;1.40;;;1.27;;
46505;SDS011;32220;49.808;9.968;2023-03-23T02:22:48;1.70;;;1.43;;
46505;SDS011;32220;49.808;9.968;2023-03-23T02:25:43;1.37;;;1.27;;
46505;SDS011;32220;49.808;9.968;2023-03-23T02:34:33;2.00;;;1.40;;
46505;SDS011;32220;49.808;9.968;2023-03-23T02:37:08;1.97;;;1.67;;
46505;SDS011;32220;49.808;9.968;2023-03-23T02:39:40;1.23;;;1.13;;
46505;SDS011;32220;49.808;9.968;2023-03-23T02:42:15;2.30;;;1.13;;
46505;SDS011;32220;49.808;9.968;2023-03-23T02:44:47;1.83;;;1.30;;
46505;SDS011;32220;49.808;9.968;2023-03-23T02:47:19;1.13;;;0.90;;
46505;SDS011;32220;49.808;9.968;2023-03-23T02:49:53;1.20;;;1.10;;
46505;SDS011;32220;49.808;9.968;2023-03-23T02:52:23;2.77;;;1.33;;
46505;SDS011;32220;49.808;9.968;2023-03-23T02:54:54;2.20;;;1.10;;
46505;SDS011;32220;49.808;9.968;2023-03-23T02:57:26;1.30;;;1.03;;
46505;SDS011;32220;49.808;9.968;2023-03-23T02:59:57;1.90;;;0.93;;
46505;SDS011;32220;49.808;9.968;2023-03-23T03:02:26;2.57;;;1.13;;
46505;SDS011;32220;49.808;9.968;2023-03-23T03:04:59;2.47;;;1.30;;
46505;SDS011;32220;49.808;9.968;2023-03-23T03:07:36;1.47;;;1.10;;
46505;SDS011;32220;49.808;9.968;2023-03-23T03:10:18;1.23;;;1.07;;
46505;SDS011;32220;49.808;9.968;2023-03-23T03:12:54;2.93;;;1.50;;
46505;SDS011;32220;49.808;9.968;2023-03-23T03:15:29;1.70;;;1.13;;
46505;SDS011;32220;49.808;9.968;2023-03-23T03:18:03;1.43;;;0.90;;
46505;SDS011;32220;49.808;9.968;2023-03-23T03:20:40;1.50;;;1.00;;
46505;SDS011;32220;49.808;9.968;2023-03-23T03:23:13;1.60;;;1.00;;
46505;SDS011;32220;49.808;9.968;2023-03-23T03:25:44;1.80;;;1.30;;
46505;SDS011;32220;49.808;9.968;2023-03-23T03:28:20;1.33;;;1.00;;
46505;SDS011;32220;49.808;9.968;2023-03-23T03:30:52;1.03;;;0.97;;
46505;SDS011;32220;49.808;9.968;2023-03-23T03:33:22;1.27;;;1.17;;
46505;SDS011;32220;49.808;9.968;2023-03-23T03:35:56;1.60;;;1.00;;
46505;SDS011;32220;49.808;9.968;2023-03-23T03:38:26;1.10;;;0.97;;
46505;SDS011;32220;49.808;9.968;2023-03-23T03:40:55;1.00;;;0.90;;
46505;SDS011;32220;49.808;9.968;2023-03-23T03:43:23;0.90;;;0.80;;
46505;SDS011;32220;49.808;9.968;2023-03-23T03:45:51;1.20;;;0.87;;
46505;SDS011;32220;49.808;9.968;2023-03-23T03:48:19;1.20;;;1.10;;
46505;SDS011;32220;49.808;9.968;2023-03-23T03:50:47;1.30;;;1.20;;
46505;SDS011;32220;49.808;9.968;2023-03-23T03:53:16;1.10;;;1.00;;
46505;SDS011;32220;49.808;9.968;2023-03-23T03:55:44;1.13;;;1.00;;
46505;SDS011;32220;49.808;9.968;2023-03-23T03:58:15;4.50;;;1.00;;
46505;SDS011;32220;49.808;9.968;2023-03-23T04:01:06;1.17;;;1.07;;
46505;SDS011;32220;49.808;9.968;2023-03-23T04:03:38;0.80;;;0.80;;
46505;SDS011;32220;49.808;9.968;2023-03-23T04:06:12;1.10;;;0.90;;
46505;SDS011;32220;49.808;9.968;2023-03-23T04:08:42;0.97;;;0.90;;
46505;SDS011;32220;49.808;9.968;2023-03-23T04:11:11;2.20;;;1.10;;
46505;SDS011;32220;49.808;9.968;2023-03-23T04:13:41;1.10;;;1.00;;
46505;SDS011;32220;49.808;9.968;2023-03-23T04:16:20;1.03;;;0.93;;
46505;SDS011;32220;49.808;9.968;2023-03-23T04:18:48;1.43;;;1.27;;
46505;SDS011;32220;49.808;9.968;2023-03-23T04:21:18;1.40;;;0.97;;
46505;SDS011;32220;49.808;9.968;2023-03-23T04:23:50;1.10;;;1.00;;
46505;SDS011;32220;49.808;9.968;2023-03-23T04:26:19;1.53;;;1.00;;
46505;SDS011;32220;49.808;9.968;2023-03-23T04:28:50;2.70;;;1.07;;
46505;SDS011;32220;49.808;9.968;2023-03-23T04:31:40;0.80;;;0.80;;
46505;SDS011;32220;49.808;9.968;2023-03-23T04:34:33;1.93;;;1.10;;
46505;SDS011;32220;49.808;9.968;2023-03-23T04:37:01;1.43;;;1.00;;
46505;SDS011;32220;49.808;9.968;2023-03-23T04:39:32;1.70;;;0.83;;
46505;SDS011;32220;49.808;9.968;2023-03-23T04:42:03;1.33;;;0.90;;
46505;SDS011;32220;49.808;9.968;2023-03-23T04:44:54;1.17;;;1.07;;
46505;SDS011;32220;49.808;9.968;2023-03-23T04:47:32;0.97;;;0.90;;
46505;SDS011;32220;49.808;9.968;2023-03-23T04:50:10;1.87;;;1.20;;
46505;SDS011;32220;49.808;9.968;2023-03-23T04:52:41;0.93;;;0.93;;
46505;SDS011;32220;49.808;9.968;2023-03-23T04:55:14;2.63;;;1.20;;
46505;SDS011;32220;49.808;9.968;2023-03-23T04:57:46;1.93;;;1.17;;
46505;SDS011;32220;49.808;9.968;2023-03-23T05:00:41;1.20;;;1.10;;
46505;SDS011;32220;49.808;9.968;2023-03-23T05:03:11;2.13;;;1.20;;
46505;SDS011;32220;49.808;9.968;2023-03-23T05:05:43;1.03;;;0.93;;
46505;SDS011;32220;49.808;9.968;2023-03-23T05:08:19;0.97;;;0.80;;
46505;SDS011;32220;49.808;9.968;2023-03-23T05:10:52;1.10;;;1.00;;
46505;SDS011;32220;49.808;9.968;2023-03-23T05:13:41;1.00;;;0.80;;
46505;SDS011;32220;49.808;9.968;2023-03-23T05:16:11;2.13;;;1.30;;
46505;SDS011;32220;49.808;9.968;2023-03-23T05:18:40;0.80;;;0.73;;
46505;SDS011;32220;49.808;9.968;2023-03-23T05:21:11;1.57;;;0.90;;
46505;SDS011;32220;49.808;9.968;2023-03-23T05:23:43;2.27;;;0.90;;
46505;SDS011;32220;49.808;9.968;2023-03-23T05:26:20;1.60;;;1.30;;
46505;SDS011;32220;49.808;9.968;2023-03-23T05:28:58;3.10;;;1.30;;
46505;SDS011;32220;49.808;9.968;2023-03-23T05:31:46;1.47;;;1.30;;
46505;SDS011;32220;49.808;9.968;2023-03-23T05:34:16;1.40;;;1.30;;
46505;SDS011;32220;49.808;9.968;2023-03-23T05:36:48;1.60;;;1.20;;
46505;SDS011;32220;49.808;9.968;2023-03-23T05:39:37;1.80;;;1.33;;
46505;SDS011;32220;49.808;9.968;2023-03-23T05:42:27;1.80;;;1.20;;
46505;SDS011;32220;49.808;9.968;2023-03-23T05:45:10;3.93;;;1.37;;
46505;SDS011;32220;49.808;9.968;2023-03-23T05:47:38;2.37;;;1.47;;
46505;SDS011;32220;49.808;9.968;2023-03-23T05:50:12;1.77;;;1.50;;
46505;SDS011;32220;49.808;9.968;2023-03-23T05:52:40;1.77;;;1.63;;
46505;SDS011;32220;49.808;9.968;2023-03-23T05:55:11;2.40;;;1.60;;
46505;SDS011;32220;49.808;9.968;2023-03-23T05:57:43;1.40;;;1.20;;
46505;SDS011;32220;49.808;9.968;2023-03-23T06:00:33;2.00;;;1.50;;
46505;SDS011;32220;49.808;9.968;2023-03-23T06:03:16;1.50;;;1.40;;
46505;SDS011;32220;49.808;9.968;2023-03-23T06:05:54;2.37;;;1.50;;
46505;SDS011;32220;49.808;9.968;2023-03-23T06:08:30;1.67;;;1.53;;
46505;SDS011;32220;49.808;9.968;2023-03-23T06:10:58;2.97;;;1.57;;
46505;SDS011;32220;49.808;9.968;2023-03-23T06:13:28;2.70;;;1.50;;
46505;SDS011;32220;49.808;9.968;2023-03-23T06:16:04;1.97;;;1.40;;
46505;SDS011;32220;49.808;9.968;2023-03-23T06:18:51;2.70;;;1.50;;
46505;SDS011;32220;49.808;9.968;2023-03-23T06:21:26;2.50;;;1.50;;
46505;SDS011;32220;49.808;9.968;2023-03-23T06:24:12;2.20;;;1.27;;
46505;SDS011;32220;49.808;9.968;2023-03-23T06:26:40;1.63;;;1.53;;
46505;SDS011;32220;49.808;9.968;2023-03-23T06:29:15;2.30;;;1.57;;
46505;SDS011;32220;49.808;9.968;2023-03-23T06:31:49;2.87;;;1.60;;
46505;SDS011;32220;49.808;9.968;2023-03-23T06:34:20;2.77;;;1.47;;
46505;SDS011;32220;49.808;9.968;2023-03-23T06:37:21;1.70;;;1.60;;
46505;SDS011;32220;49.808;9.968;2023-03-23T06:40:05;3.83;;;2.37;;
46505;SDS011;32220;49.808;9.968;2023-03-23T06:42:38;2.23;;;1.80;;
46505;SDS011;32220;49.808;9.968;2023-03-23T06:45:26;4.20;;;2.60;;
46505;SDS011;32220;49.808;9.968;2023-03-23T06:48:32;2.60;;;2.20;;
46505;SDS011;32220;49.808;9.968;2023-03-23T06:51:01;3.90;;;2.13;;
46505;SDS011;32220;49.808;9.968;2023-03-23T06:53:30;2.90;;;1.83;;
46505;SDS011;32220;49.808;9.968;2023-03-23T06:55:59;1.73;;;1.60;;
46505;SDS011;32220;49.808;9.968;2023-03-23T06:58:29;2.07;;;1.53;;
46505;SDS011;32220;49.808;9.968;2023-03-23T07:00:59;1.57;;;1.30;;
46505;SDS011;32220;49.808;9.968;2023-03-23T07:03:35;2.30;;;2.10;;
46505;SDS011;32220;49.808;9.968;2023-03-23T07:06:04;2.53;;;1.80;;
46505;SDS011;32220;49.808;9.968;2023-03-23T07:08:36;3.20;;;1.73;;
46505;SDS011;32220;49.808;9.968;2023-03-23T07:11:06;1.67;;;1.50;;
46505;SDS011;32220;49.808;9.968;2023-03-23T07:13:36;1.80;;;1.53;;
46505;SDS011;32220;49.808;9.968;2023-03-23T07:16:06;3.67;;;1.83;;
46505;SDS011;32220;49.808;9.968;2023-03-23T07:18:35;1.70;;;1.40;;
46505;SDS011;32220;49.808;9.968;2023-03-23T07:21:04;3.97;;;1.67;;
46505;SDS011;32220;49.808;9.968;2023-03-23T07:23:33;1.47;;;1.37;;
46505;SDS011;32220;49.808;9.968;2023-03-23T07:26:04;1.40;;;1.13;;
46505;SDS011;32220;49.808;9.968;2023-03-23T07:28:38;2.43;;;1.10;;
46505;SDS011;32220;49.808;9.968;2023-03-23T07:31:29;2.37;;;1.20;;
46505;SDS011;32220;49.808;9.968;2023-03-23T07:33:57;1.80;;;1.30;;
46505;SDS011;32220;49.808;9.968;2023-03-23T07:36:35;1.10;;;1.00;;
46505;SDS011;32220;49.808;9.968;2023-03-23T07:39:06;2.73;;;1.30;;
46505;SDS011;32220;49.808;9.968;2023-03-23T07:41:34;1.00;;;0.90;;
46505;SDS011;32220;49.808;9.968;2023-03-23T07:44:13;1.37;;;1.27;;
46505;SDS011;32220;49.808;9.968;2023-03-23T07:46:44;1.30;;;1.00;;
46505;SDS011;32220;49.808;9.968;2023-03-23T07:49:15;0.87;;;0.83;;
46505;SDS011;32220;49.808;9.968;2023-03-23T07:52:00;1.40;;;1.20;;
46505;SDS011;32220;49.808;9.968;2023-03-23T07:54:29;1.47;;;1.37;;
46505;SDS011;32220;49.808;9.968;2023-03-23T07:57:07;1.43;;;1.27;;
46505;SDS011;32220;49.808;9.968;2023-03-23T07:59:39;1.57;;;1.00;;
46505;SDS011;32220;49.808;9.968;2023-03-23T08:02:10;1.47;;;1.30;;
46505;SDS011;32220;49.808;9.968;2023-03-23T08:04:44;2.13;;;1.30;;
46505;SDS011;32220;49.808;9.968;2023-03-23T08:07:13;0.90;;;0.90;;
46505;SDS011;32220;49.808;9.968;2023-03-23T08:10:21;1.50;;;1.10;;
46505;SDS011;32220;49.808;9.968;2023-03-23T08:13:11;1.27;;;1.10;;
46505;SDS011;32220;49.808;9.968;2023-03-23T08:15:59;1.33;;;1.07;;
46505;SDS011;32220;49.808;9.968;2023-03-23T08:19:09;2.00;;;1.20;;
46505;SDS011;32220;49.808;9.968;2023-03-23T08:21:50;1.87;;;1.10;;
46505;SDS011;32220;49.808;9.968;2023-03-23T08:24:40;1.00;;;0.90;;
46505;SDS011;32220;49.808;9.968;2023-03-23T08:27:38;1.37;;;1.20;;
46505;SDS011;32220;49.808;9.968;2023-03-23T08:30:30;1.30;;;1.10;;
46505;SDS011;32220;49.808;9.968;2023-03-23T08:33:38;1.77;;;1.30;;
46505;SDS011;32220;49.808;9.968;2023-03-23T08:36:39;1.37;;;1.13;;
46505;SDS011;32220;49.808;9.968;2023-03-23T08:39:12;1.40;;;1.30;;
46505;SDS011;32220;49.808;9.968;2023-03-23T08:42:12;2.17;;;1.33;;
46505;SDS011;32220;49.808;9.968;2023-03-23T08:44:52;1.40;;;1.20;;
46505;SDS011;32220;49.808;9.968;2023-03-23T08:47:46;1.93;;;1.30;;
46505;SDS011;32220;49.808;9.968;2023-03-23T08:50:43;1.30;;;1.20;;
46505;SDS011;32220;49.808;9.968;2023-03-23T08:53:27;1.50;;;1.20;;
46505;SDS011;32220;49.808;9.968;2023-03-23T08:56:22;1.57;;;1.10;;
46505;SDS011;32220;49.808;9.968;2023-03-23T08:59:04;1.83;;;1.10;;
46505;SDS011;32220;49.808;9.968;2023-03-23T09:01:54;1.20;;;1.10;;
46505;SDS011;32220;49.808;9.968;2023-03-23T09:04:42;1.97;;;1.30;;
46505;SDS011;32220;49.808;9.968;2023-03-23T09:07:25;2.50;;;1.10;;
46505;SDS011;32220;49.808;9.968;2023-03-23T09:09:55;1.80;;;1.50;;
46505;SDS011;32220;49.808;9.968;2023-03-23T09:12:22;4.33;;;1.40;;
46505;SDS011;32220;49.808;9.968;2023-03-23T09:14:50;2.63;;;1.90;;
46505;SDS011;32220;49.808;9.968;2023-03-23T09:17:18;1.67;;;1.57;;
46505;SDS011;32220;49.808;9.968;2023-03-23T09:19:46;1.23;;;1.13;;
46505;SDS011;32220;49.808;9.968;2023-03-23T09:22:14;1.30;;;1.20;;
46505;SDS011;32220;49.808;9.968;2023-03-23T09:24:45;1.40;;;1.30;;
46505;SDS011;32220;49.808;9.968;2023-03-23T09:27:14;1.73;;;1.33;;
46505;SDS011;32220;49.808;9.968;2023-03-23T09:29:43;1.20;;;1.07;;
46505;SDS011;32220;49.808;9.968;2023-03-23T09:32:12;2.20;;;1.13;;
46505;SDS011;32220;49.808;9.968;2023-03-23T09:34:40;1.50;;;0.90;;
46505;SDS011;32220;49.808;9.968;2023-03-23T09:37:08;1.30;;;1.10;;
46505;SDS011;32220;49.808;9.968;2023-03-23T09:39:38;1.30;;;1.20;;
46505;SDS011;32220;49.808;9.968;2023-03-23T09:42:12;2.20;;;1.33;;
46505;SDS011;32220;49.808;9.968;2023-03-23T09:45:05;3.23;;;1.20;;
46505;SDS011;32220;49.808;9.968;2023-03-23T09:47:38;2.37;;;1.30;;
46505;SDS011;32220;49.808;9.968;2023-03-23T09:50:12;1.60;;;1.43;;
46505;SDS011;32220;49.808;9.968;2023-03-23T09:52:44;2.90;;;1.30;;
46505;SDS011;32220;49.808;9.968;2023-03-23T09:55:20;1.60;;;1.10;;
46505;SDS011;32220;49.808;9.968;2023-03-23T09:57:51;1.97;;;1.30;;
46505;SDS011;32220;49.808;9.968;2023-03-23T10:00:25;2.73;;;1.57;;
46505;SDS011;32220;49.808;9.968;2023-03-23T10:02:59;1.10;;;1.00;;
46505;SDS011;32220;49.808;9.968;2023-03-23T10:05:33;1.57;;;1.10;;
46505;SDS011;32220;49.808;9.968;2023-03-23T10:08:08;2.00;;;1.20;;
46505;SDS011;32220;49.808;9.968;2023-03-23T10:10:52;1.40;;;1.30;;
46505;SDS011;32220;49.808;9.968;2023-03-23T10:13:32;1.43;;;1.13;;
46505;SDS011;32220;49.808;9.968;2023-03-23T10:18:58;1.43;;;1.20;;
46505;SDS011;32220;49.808;9.968;2023-03-23T10:21:35;0.93;;;0.83;;
46505;SDS011;32220;49.808;9.968;2023-03-23T10:24:09;1.60;;;1.00;;
46505;SDS011;32220;49.808;9.968;2023-03-23T10:26:41;1.80;;;1.30;;
46505;SDS011;32220;49.808;9.968;2023-03-23T10:29:16;0.90;;;0.90;;
46505;SDS011;32220;49.808;9.968;2023-03-23T10:31:50;0.93;;;0.93;;
46505;SDS011;32220;49.808;9.968;2023-03-23T10:34:22;1.73;;;1.10;;
46505;SDS011;32220;49.808;9.968;2023-03-23T10:36:58;1.80;;;1.20;;
46505;SDS011;32220;49.808;9.968;2023-03-23T10:39:31;2.67;;;1.10;;
46505;SDS011;32220;49.808;9.968;2023-03-23T10:42:05;2.17;;;0.80;;
46505;SDS011;32220;49.808;9.968;2023-03-23T10:44:34;0.87;;;0.87;;
46505;SDS011;32220;49.808;9.968;2023-03-23T10:47:05;0.80;;;0.80;;
46505;SDS011;32220;49.808;9.968;2023-03-23T10:49:35;1.07;;;0.90;;
46505;SDS011;32220;49.808;9.968;2023-03-23T10:52:09;1.20;;;0.80;;
46505;SDS011;32220;49.808;9.968;2023-03-23T10:54:50;1.00;;;0.80;;
46505;SDS011;32220;49.808;9.968;2023-03-23T10:57:21;1.23;;;0.70;;
46505;SDS011;32220;49.808;9.968;2023-03-23T10:59:50;0.83;;;0.67;;
46505;SDS011;32220;49.808;9.968;2023-03-23T11:02:20;1.10;;;0.70;;
46505;SDS011;32220;49.808;9.968;2023-03-23T11:04:56;0.70;;;0.70;;
46505;SDS011;32220;49.808;9.968;2023-03-23T11:07:27;1.10;;;0.80;;
46505;SDS011;32220;49.808;9.968;2023-03-23T11:09:59;1.37;;;1.00;;
46505;SDS011;32220;49.808;9.968;2023-03-23T11:12:35;1.00;;;0.70;;
46505;SDS011;32220;49.808;9.968;2023-03-23T11:15:04;0.90;;;0.73;;
46505;SDS011;32220;49.808;9.968;2023-03-23T11:17:55;0.90;;;0.90;;
46505;SDS011;32220;49.808;9.968;2023-03-23T11:20:25;0.80;;;0.80;;
46505;SDS011;32220;49.808;9.968;2023-03-23T11:22:54;0.87;;;0.77;;
46505;SDS011;32220;49.808;9.968;2023-03-23T11:25:22;1.17;;;0.80;;
46505;SDS011;32220;49.808;9.968;2023-03-23T11:27:56;1.23;;;0.70;;
46505;SDS011;32220;49.808;9.968;2023-03-23T11:30:25;1.80;;;0.90;;
46505;SDS011;32220;49.808;9.968;2023-03-23T11:32:58;1.10;;;0.90;;
46505;SDS011;32220;49.808;9.968;2023-03-23T11:35:29;4.60;;;0.80;;
46505;SDS011;32220;49.808;9.968;2023-03-23T11:37:57;1.33;;;0.90;;
46505;SDS011;32220;49.808;9.968;2023-03-23T11:40:26;1.10;;;0.77;;
46505;SDS011;32220;49.808;9.968;2023-03-23T11:42:58;0.80;;;0.80;;
46505;SDS011;32220;49.808;9.968;2023-03-23T11:45:32;1.10;;;0.70;;
46505;SDS011;32220;49.808;9.968;2023-03-23T11:48:06;0.70;;;0.70;;
46505;SDS011;32220;49.808;9.968;2023-03-23T11:50:50;0.80;;;0.80;;
46505;SDS011;32220;49.808;9.968;2023-03-23T11:53:22;0.70;;;0.70;;
46505;SDS011;32220;49.808;9.968;2023-03-23T11:55:59;0.83;;;0.83;;
46505;SDS011;32220;49.808;9.968;2023-03-23T11:58:33;0.87;;;0.60;;
46505;SDS011;32220;49.808;9.968;2023-03-23T12:01:04;1.57;;;1.10;;
46505;SDS011;32220;49.808;9.968;2023-03-23T12:03:50;1.47;;;1.00;;
46505;SDS011;32220;49.808;9.968;2023-03-23T12:06:35;1.43;;;1.33;;
46505;SDS011;32220;49.808;9.968;2023-03-23T12:09:16;1.47;;;1.03;;
46505;SDS011;32220;49.808;9.968;2023-03-23T12:11:56;1.20;;;1.10;;
46505;SDS011;32220;49.808;9.968;2023-03-23T12:14:36;1.13;;;0.90;;
46505;SDS011;32220;49.808;9.968;2023-03-23T12:17:16;1.27;;;1.10;;
46505;SDS011;32220;49.808;9.968;2023-03-23T12:19:56;0.87;;;0.87;;
46505;SDS011;32220;49.808;9.968;2023-03-23T12:22:42;1.53;;;1.10;;
46505;SDS011;32220;49.808;9.968;2023-03-23T12:25:30;2.90;;;1.27;;
46505;SDS011;32220;49.808;9.968;2023-03-23T12:28:10;3.23;;;1.30;;
46505;SDS011;32220;49.808;9.968;2023-03-23T12:30:45;2.13;;;1.10;;
46505;SDS011;32220;49.808;9.968;2023-03-23T12:33:23;1.27;;;1.17;;
46505;SDS011;32220;49.808;9.968;2023-03-23T12:36:04;2.23;;;1.10;;
46505;SDS011;32220;49.808;9.968;2023-03-23T12:38:42;2.97;;;1.40;;
46505;SDS011;32220;49.808;9.968;2023-03-23T12:41:23;1.30;;;1.20;;
46505;SDS011;32220;49.808;9.968;2023-03-23T12:43:58;2.17;;;1.40;;
46505;SDS011;32220;49.808;9.968;2023-03-23T12:46:32;2.03;;;1.20;;
46505;SDS011;32220;49.808;9.968;2023-03-23T12:49:22;4.13;;;1.60;;
46505;SDS011;32220;49.808;9.968;2023-03-23T12:51:57;2.70;;;1.40;;
46505;SDS011;32220;49.808;9.968;2023-03-23T12:54:31;1.10;;;1.00;;
46505;SDS011;32220;49.808;9.968;2023-03-23T12:57:05;2.37;;;1.30;;
46505;SDS011;32220;49.808;9.968;2023-03-23T12:59:39;3.23;;;1.20;;
46505;SDS011;32220;49.808;9.968;2023-03-23T13:02:13;1.27;;;1.10;;
46505;SDS011;32220;49.808;9.968;2023-03-23T13:04:47;1.83;;;1.17;;
46505;SDS011;32220;49.808;9.968;2023-03-23T13:07:28;2.07;;;1.17;;
46505;SDS011;32220;49.808;9.968;2023-03-23T13:10:02;1.23;;;1.10;;
46505;SDS011;32220;49.808;9.968;2023-03-23T13:12:32;3.43;;;1.10;;
46505;SDS011;32220;49.808;9.968;2023-03-23T13:15:09;1.20;;;1.10;;
46505;SDS011;32220;49.808;9.968;2023-03-23T13:17:48;2.70;;;1.00;;
46505;SDS011;32220;49.808;9.968;2023-03-23T13:20:38;2.10;;;1.10;;
46505;SDS011;32220;49.808;9.968;2023-03-23T13:23:18;0.83;;;0.83;;
46505;SDS011;32220;49.808;9.968;2023-03-23T13:25:49;1.60;;;0.90;;
46505;SDS011;32220;49.808;9.968;2023-03-23T13:28:22;2.03;;;1.20;;
46505;SDS011;32220;49.808;9.968;2023-03-23T13:30:58;1.13;;;1.03;;
46505;SDS011;32220;49.808;9.968;2023-03-23T13:33:29;1.43;;;0.90;;
46505;SDS011;32220;49.808;9.968;2023-03-23T13:36:02;0.80;;;0.80;;
46505;SDS011;32220;49.808;9.968;2023-03-23T13:38:35;2.37;;;1.00;;
46505;SDS011;32220;49.808;9.968;2023-03-23T13:41:07;2.37;;;0.97;;
46505;SDS011;32220;49.808;9.968;2023-03-23T13:43:38;0.90;;;0.90;;
46505;SDS011;32220;49.808;9.968;2023-03-23T13:46:23;1.53;;;0.90;;
46505;SDS011;32220;49.808;9.968;2023-03-23T13:49:18;0.83;;;0.80;;
46505;SDS011;32220;49.808;9.968;2023-03-23T13:51:52;1.03;;;0.93;;
46505;SDS011;32220;49.808;9.968;2023-03-23T13:54:31;1.57;;;1.00;;
46505;SDS011;32220;49.808;9.968;2023-03-23T14:00:33;1.13;;;0.90;;
46505;SDS011;32220;49.808;9.968;2023-03-23T14:03:11;0.80;;;0.80;;
46505;SDS011;32220;49.808;9.968;2023-03-23T14:05:42;0.80;;;0.80;;
46505;SDS011;32220;49.808;9.968;2023-03-23T14:08:12;1.93;;;1.00;;
46505;SDS011;32220;49.808;9.968;2023-03-23T14:10:51;1.10;;;0.87;;
46505;SDS011;32220;49.808;9.968;2023-03-23T14:13:24;1.13;;;1.00;;
46505;SDS011;32220;49.808;9.968;2023-03-23T14:15:58;1.83;;;0.87;;
46505;SDS011;32220;49.808;9.968;2023-03-23T14:18:30;1.57;;;0.90;;
46505;SDS011;32220;49.808;9.968;2023-03-23T14:21:04;1.00;;;0.90;;
46505;SDS011;32220;49.808;9.968;2023-03-23T14:23:40;0.83;;;0.83;;
46505;SDS011;32220;49.808;9.968;2023-03-23T14:26:11;1.70;;;0.87;;
46505;SDS011;32220;49.808;9.968;2023-03-23T14:28:43;1.57;;;0.90;;
46505;SDS011;32220;49.808;9.968;2023-03-23T14:31:15;0.83;;;0.83;;
46505;SDS011;32220;49.808;9.968;2023-03-23T14:33:46;1.00;;;0.90;;
46505;SDS011;32220;49.808;9.968;2023-03-23T14:36:18;1.30;;;1.00;;
46505;SDS011;32220;49.808;9.968;2023-03-23T14:38:48;1.20;;;1.10;;
46505;SDS011;32220;49.808;9.968;2023-03-23T14:41:24;0.97;;;0.80;;
46505;SDS011;32220;49.808;9.968;2023-03-23T14:43:56;0.80;;;0.80;;
46505;SDS011;32220;49.808;9.968;2023-03-23T14:46:28;0.97;;;0.97;;
46505;SDS011;32220;49.808;9.968;2023-03-23T14:48:59;1.10;;;1.00;;
46505;SDS011;32220;49.808;9.968;2023-03-23T14:51:28;1.60;;;0.80;;
46505;SDS011;32220;49.808;9.968;2023-03-23T14:53:57;0.80;;;0.80;;
46505;SDS011;32220;49.808;9.968;2023-03-23T14:56:34;0.60;;;0.60;;
46505;SDS011;32220;49.808;9.968;2023-03-23T14:59:05;0.70;;;0.70;;
46505;SDS011;32220;49.808;9.968;2023-03-23T15:01:35;1.10;;;1.00;;
46505;SDS011;32220;49.808;9.968;2023-03-23T15:04:06;3.07;;;0.90;;
46505;SDS011;32220;49.808;9.968;2023-03-23T15:06:39;1.10;;;1.00;;
46505;SDS011;32220;49.808;9.968;2023-03-23T15:09:10;0.77;;;0.77;;
46505;SDS011;32220;49.808;9.968;2023-03-23T15:11:41;1.30;;;1.20;;
46505;SDS011;32220;49.808;9.968;2023-03-23T15:14:13;1.00;;;0.90;;
46505;SDS011;32220;49.808;9.968;2023-03-23T15:16:45;0.87;;;0.80;;
46505;SDS011;32220;49.808;9.968;2023-03-23T15:19:16;1.20;;;0.77;;
46505;SDS011;32220;49.808;9.968;2023-03-23T15:21:47;1.33;;;0.90;;
46505;SDS011;32220;49.808;9.968;2023-03-23T15:24:24;0.93;;;0.93;;
46505;SDS011;32220;49.808;9.968;2023-03-23T15:27:02;1.20;;;1.00;;
46505;SDS011;32220;49.808;9.968;2023-03-23T15:29:45;2.70;;;1.17;;
46505;SDS011;32220;49.808;9.968;2023-03-23T15:32:20;1.47;;;1.00;;
46505;SDS011;32220;49.808;9.968;2023-03-23T15:34:49;1.23;;;1.10;;
46505;SDS011;32220;49.808;9.968;2023-03-23T15:37:18;1.13;;;1.03;;
46505;SDS011;32220;49.808;9.968;2023-03-23T15:39:48;1.27;;;0.90;;
46505;SDS011;32220;49.808;9.968;2023-03-23T15:42:21;1.30;;;1.10;;
46505;SDS011;32220;49.808;9.968;2023-03-23T15:44:56;0.93;;;0.90;;
46505;SDS011;32220;49.808;9.968;2023-03-23T15:47:33;0.97;;;0.90;;